sensor_id;sensor_type;location;lat;lon;timestamp;pressure;altitude;pressure_sealevel;temperature;humidity
78892;BME280;68368;51.728;5.248;2024-02-15T06:22:54;101497.33;;;10.96;100.00
78892;BME280;68368;51.728;5.248;2024-02-15T08:32:27;101481.33;;;11.64;100.00
78892;BME280;68368;51.728;5.248;2024-02-15T08:53:15;101469.51;;;11.88;100.00
78892;BME280;68368;51.728;5.248;2024-02-15T09:58:20;101455.87;;;12.56;100.00
78892;BME280;68368;51.728;5.248;2024-02-15T10:00:23;101453.89;;;12.60;100.00
78892;BME280;68368;51.728;5.248;2024-02-15T10:02:27;101451.87;;;12.67;100.00
78892;BME280;68368;51.728;5.248;2024-02-15T10:04:30;101445.73;;;12.75;100.00
78892;BME280;68368;51.728;5.248;2024-02-15T10:06:46;101446.90;;;12.82;100.00
78892;BME280;68368;51.728;5.248;2024-02-15T10:08:51;101447.35;;;12.93;100.00
78892;BME280;68368;51.728;5.248;2024-02-15T10:11:09;101448.84;;;13.04;100.00
78892;BME280;68368;51.728;5.248;2024-02-15T10:13:18;101447.11;;;13.14;100.00
78892;BME280;68368;51.728;5.248;2024-02-15T10:15:56;101453.25;;;13.25;100.00
78892;BME280;68368;51.728;5.248;2024-02-15T10:18:03;101449.02;;;13.38;100.00
78892;BME280;68368;51.728;5.248;2024-02-15T10:20:24;101448.55;;;13.47;100.00
78892;BME280;68368;51.728;5.248;2024-02-15T10:22:34;101449.86;;;13.56;100.00
78892;BME280;68368;51.728;5.248;2024-02-15T10:24:53;101449.23;;;13.63;100.00
78892;BME280;68368;51.728;5.248;2024-02-15T10:27:34;101450.60;;;13.68;100.00
78892;BME280;68368;51.728;5.248;2024-02-15T10:29:55;101453.40;;;13.72;100.00
78892;BME280;68368;51.728;5.248;2024-02-15T10:32:18;101455.90;;;13.72;100.00
78892;BME280;68368;51.728;5.248;2024-02-15T10:34:23;101455.70;;;13.73;100.00
78892;BME280;68368;51.728;5.248;2024-02-15T10:36:29;101456.27;;;13.72;100.00
78892;BME280;68368;51.728;5.248;2024-02-15T10:38:33;101457.40;;;13.68;100.00
78892;BME280;68368;51.728;5.248;2024-02-15T10:40:37;101457.76;;;13.67;100.00
78892;BME280;68368;51.728;5.248;2024-02-15T10:42:42;101453.66;;;13.66;100.00
78892;BME280;68368;51.728;5.248;2024-02-15T10:44:47;101449.73;;;13.66;100.00
78892;BME280;68368;51.728;5.248;2024-02-15T10:46:52;101448.30;;;13.67;100.00
78892;BME280;68368;51.728;5.248;2024-02-15T10:48:55;101439.16;;;13.69;100.00
78892;BME280;68368;51.728;5.248;2024-02-15T10:51:00;101432.52;;;13.72;100.00
78892;BME280;68368;51.728;5.248;2024-02-15T10:53:26;101433.20;;;13.75;100.00
78892;BME280;68368;51.728;5.248;2024-02-15T10:55:40;101431.55;;;13.78;100.00
78892;BME280;68368;51.728;5.248;2024-02-15T10:57:47;101432.74;;;13.83;100.00
78892;BME280;68368;51.728;5.248;2024-02-15T10:59:58;101431.26;;;13.87;100.00
78892;BME280;68368;51.728;5.248;2024-02-15T11:11:14;101425.48;;;14.04;100.00
78892;BME280;68368;51.728;5.248;2024-02-15T11:16:56;101423.55;;;14.24;100.00
78892;BME280;68368;51.728;5.248;2024-02-15T11:19:01;101426.27;;;14.33;100.00
78892;BME280;68368;51.728;5.248;2024-02-15T11:30:59;101422.69;;;14.97;100.00
78892;BME280;68368;51.728;5.248;2024-02-15T12:18:40;101350.71;;;16.14;92.64
78892;BME280;68368;51.728;5.248;2024-02-15T12:20:44;101347.98;;;16.16;92.51
78892;BME280;68368;51.728;5.248;2024-02-15T12:22:48;101347.15;;;16.20;92.60
78892;BME280;68368;51.728;5.248;2024-02-15T12:24:57;101347.23;;;16.24;92.67
78892;BME280;68368;51.728;5.248;2024-02-15T12:27:04;101344.42;;;16.28;92.77
78892;BME280;68368;51.728;5.248;2024-02-15T12:29:09;101340.31;;;16.28;92.03
78892;BME280;68368;51.728;5.248;2024-02-15T12:31:12;101339.85;;;16.25;91.01
78892;BME280;68368;51.728;5.248;2024-02-15T12:33:15;101340.65;;;16.23;91.42
78892;BME280;68368;51.728;5.248;2024-02-15T12:35:41;101336.33;;;16.23;91.80
78892;BME280;68368;51.728;5.248;2024-02-15T12:38:29;101330.59;;;16.23;90.99
78892;BME280;68368;51.728;5.248;2024-02-15T12:56:36;101311.45;;;16.56;88.60
78892;BME280;68368;51.728;5.248;2024-02-15T14:56:52;101167.71;;;16.44;79.27
78892;BME280;68368;51.728;5.248;2024-02-15T15:48:53;101105.95;;;16.23;76.51
78892;BME280;68368;51.728;5.248;2024-02-15T15:50:55;101105.78;;;16.23;76.76
78892;BME280;68368;51.728;5.248;2024-02-15T15:52:58;101101.33;;;16.22;76.19
78892;BME280;68368;51.728;5.248;2024-02-15T15:55:03;101100.46;;;16.22;76.05
78892;BME280;68368;51.728;5.248;2024-02-15T15:57:31;101099.09;;;16.19;76.40
78892;BME280;68368;51.728;5.248;2024-02-15T15:59:39;101092.96;;;16.15;76.28
78892;BME280;68368;51.728;5.248;2024-02-15T16:01:52;101090.65;;;16.08;76.30
78892;BME280;68368;51.728;5.248;2024-02-15T16:03:59;101090.13;;;16.01;75.45
78892;BME280;68368;51.728;5.248;2024-02-15T16:06:04;101092.52;;;15.93;75.54
78892;BME280;68368;51.728;5.248;2024-02-15T16:08:09;101092.92;;;15.84;75.80
78892;BME280;68368;51.728;5.248;2024-02-15T16:10:12;101093.00;;;15.76;76.02
78892;BME280;68368;51.728;5.248;2024-02-15T16:12:17;101096.05;;;15.68;76.41
78892;BME280;68368;51.728;5.248;2024-02-15T16:14:22;101094.11;;;15.59;76.99
78892;BME280;68368;51.728;5.248;2024-02-15T16:16:25;101104.73;;;15.50;77.60
78892;BME280;68368;51.728;5.248;2024-02-15T16:18:41;101101.05;;;15.40;77.37
78892;BME280;68368;51.728;5.248;2024-02-15T16:20:44;101106.85;;;15.30;78.20
78892;BME280;68368;51.728;5.248;2024-02-15T16:23:04;101106.01;;;15.22;78.21
78892;BME280;68368;51.728;5.248;2024-02-15T19:36:10;101039.32;;;12.44;86.22
78892;BME280;68368;51.728;5.248;2024-02-15T23:53:29;100944.86;;;10.99;90.74
